createdAt,value
2023-01-28T00:00:40.329Z,16.15
2023-01-28T00:03:08.009Z,14.02
2023-01-28T00:05:35.650Z,15.57
2023-01-28T00:08:04.802Z,19.13
2023-01-28T00:10:32.553Z,15.98
2023-01-28T00:13:00.265Z,17.08
2023-01-28T00:15:27.948Z,20.42
2023-01-28T00:17:55.935Z,25.20
2023-01-28T00:20:23.629Z,21.25
2023-01-28T00:22:52.237Z,18.20
2023-01-28T00:25:21.360Z,18.20
2023-01-28T00:27:49.337Z,16.63
2023-01-28T00:30:17.123Z,15.70
2023-01-28T00:32:44.830Z,19.60
2023-01-28T00:35:13.925Z,17.20
2023-01-28T00:37:41.874Z,19.95
2023-01-28T00:40:10.540Z,17.50
2023-01-28T00:42:39.618Z,18.60
2023-01-28T00:45:07.760Z,17.77
2023-01-28T00:47:35.601Z,17.30
2023-01-28T00:50:03.997Z,22.05
2023-01-28T00:52:33.953Z,17.95
2023-01-28T00:55:01.660Z,18.42
2023-01-28T00:57:29.399Z,19.15
2023-01-28T00:59:58.425Z,19.77
2023-01-28T01:02:26.177Z,16.35
2023-01-28T01:04:59.987Z,22.42
2023-01-28T01:07:41.940Z,20.58
2023-01-28T01:10:10.559Z,19.02
2023-01-28T01:12:38.226Z,21.63
2023-01-28T01:15:08.907Z,17.63
2023-01-28T01:17:37.726Z,20.50
2023-01-28T01:20:05.826Z,18.85
2023-01-28T01:22:34.178Z,21.98
2023-01-28T01:25:01.879Z,20.67
2023-01-28T01:27:29.548Z,20.67
2023-01-28T01:29:59.020Z,19.85
2023-01-28T01:32:30.697Z,21.90
2023-01-28T01:34:58.385Z,23.08
2023-01-28T01:37:26.017Z,18.08
2023-01-28T01:39:53.789Z,19.00
2023-01-28T01:42:21.741Z,15.32
2023-01-28T01:44:59.287Z,18.95
2023-01-28T01:47:31.235Z,19.98
2023-01-28T01:49:59.699Z,20.58
2023-01-28T01:52:29.538Z,17.20
2023-01-28T01:54:58.465Z,17.13
2023-01-28T01:57:28.312Z,17.27
2023-01-28T01:59:56.644Z,17.63
2023-01-28T02:02:25.232Z,16.55
2023-01-28T02:04:54.267Z,17.65
2023-01-28T02:07:21.986Z,14.57
2023-01-28T02:09:50.478Z,11.70
2023-01-28T02:12:20.026Z,13.77
2023-01-28T02:14:54.720Z,15.85
2023-01-28T02:17:22.994Z,14.75
2023-01-28T02:19:54.847Z,16.15
2023-01-28T02:22:37.401Z,18.60
2023-01-28T02:25:25.893Z,13.55
2023-01-28T02:28:02.667Z,10.32
2023-01-28T02:30:33.322Z,14.95
2023-01-28T02:33:03.115Z,16.83
2023-01-28T02:35:36.464Z,14.38
2023-01-28T02:38:06.599Z,12.50
2023-01-28T02:40:56.077Z,15.40
2023-01-28T02:43:32.009Z,15.85
2023-01-28T02:46:17.804Z,20.77
2023-01-28T02:51:18.172Z,15.80
2023-01-28T02:53:47.914Z,20.75
2023-01-28T02:56:20.914Z,20.13
2023-01-28T02:58:55.360Z,19.58
2023-01-28T03:01:25.887Z,16.77
2023-01-28T03:03:58.547Z,19.92
2023-01-28T03:06:27.999Z,14.25
2023-01-28T03:09:16.850Z,16.05
2023-01-28T03:12:04.890Z,18.02
2023-01-28T03:14:53.986Z,17.45
2023-01-28T03:17:41.874Z,16.08
2023-01-28T03:20:27.733Z,19.48
2023-01-28T03:25:59.246Z,16.45
2023-01-28T03:28:45.820Z,12.77
2023-01-28T03:31:33.542Z,13.40
2023-01-28T03:34:19.353Z,14.75
2023-01-28T03:39:23.539Z,16.30
2023-01-28T03:41:57.788Z,18.42
2023-01-28T03:44:43.986Z,13.07
2023-01-28T03:47:13.545Z,14.13
2023-01-28T03:49:41.760Z,15.07
2023-01-28T03:52:09.863Z,13.60
2023-01-28T03:54:37.632Z,10.70
2023-01-28T03:57:06.245Z,13.13
2023-01-28T03:59:34.202Z,15.95
2023-01-28T04:02:03.445Z,12.57
2023-01-28T04:04:33.002Z,9.65
2023-01-28T04:07:01.188Z,11.55
2023-01-28T04:09:29.535Z,13.18
2023-01-28T04:11:57.219Z,12.70
2023-01-28T04:14:24.899Z,11.77
2023-01-28T04:16:54.969Z,12.10
2023-01-28T04:19:22.767Z,11.98
2023-01-28T04:21:54.067Z,11.07
2023-01-28T04:24:22.135Z,14.57
2023-01-28T04:26:50.374Z,13.00
2023-01-28T04:29:18.085Z,14.15
2023-01-28T04:31:45.818Z,12.05
2023-01-28T04:34:13.618Z,11.93
2023-01-28T04:36:41.497Z,13.10
2023-01-28T04:39:10.534Z,13.23
2023-01-28T04:41:38.188Z,15.65
2023-01-28T04:44:05.907Z,18.77
2023-01-28T04:46:33.824Z,13.73
2023-01-28T04:49:03.609Z,22.13
2023-01-28T04:51:31.326Z,17.02
2023-01-28T04:53:59.023Z,17.73
2023-01-28T04:56:28.079Z,19.10
2023-01-28T04:58:55.743Z,17.60
2023-01-28T05:01:24.685Z,18.17
2023-01-28T05:03:52.504Z,12.20
2023-01-28T05:06:20.144Z,14.23
2023-01-28T05:08:47.881Z,15.23
2023-01-28T05:11:15.576Z,17.08
2023-01-28T05:13:44.743Z,14.18
2023-01-28T05:16:12.449Z,11.25
2023-01-28T05:18:40.290Z,15.00
2023-01-28T05:21:08.032Z,16.05
2023-01-28T05:23:35.783Z,11.85
2023-01-28T05:26:03.510Z,12.45
2023-01-28T05:28:33.005Z,16.02
2023-01-28T05:31:05.338Z,14.15
2023-01-28T05:33:33.147Z,17.50
2023-01-28T05:36:00.871Z,11.25
2023-01-28T05:38:28.547Z,13.40
2023-01-28T05:40:56.270Z,13.55
2023-01-28T05:43:23.959Z,14.77
2023-01-28T05:45:51.692Z,14.23
2023-01-28T05:48:20.727Z,16.50
2023-01-28T05:50:48.560Z,12.80
2023-01-28T05:53:16.227Z,12.45
2023-01-28T05:55:44.012Z,19.90
2023-01-28T05:58:11.670Z,14.32
2023-01-28T06:00:39.359Z,18.83
2023-01-28T06:03:07.169Z,12.15
2023-01-28T06:05:36.386Z,14.32
2023-01-28T06:08:04.201Z,14.40
2023-01-28T06:10:32.072Z,15.63
2023-01-28T06:12:59.861Z,14.05
2023-01-28T06:15:27.504Z,14.75
2023-01-28T06:17:55.172Z,18.73
2023-01-28T06:20:22.832Z,15.25
2023-01-28T06:22:52.789Z,18.15
2023-01-28T06:25:20.852Z,14.15
2023-01-28T06:27:48.592Z,17.02
2023-01-28T06:30:16.948Z,12.73
2023-01-28T06:32:44.882Z,14.30
2023-01-28T06:35:12.555Z,13.35
2023-01-28T06:37:41.765Z,13.05
2023-01-28T06:40:11.917Z,12.80
2023-01-28T06:42:39.625Z,11.48
2023-01-28T06:45:07.834Z,17.15
2023-01-28T06:47:35.527Z,19.13
2023-01-28T06:50:04.089Z,15.48
2023-01-28T06:52:32.027Z,12.45
2023-01-28T06:54:59.696Z,12.35
2023-01-28T06:57:28.708Z,16.95
2023-01-28T06:59:56.494Z,15.15
2023-01-28T07:02:26.557Z,15.20
2023-01-28T07:04:55.301Z,12.95
2023-01-28T07:07:22.940Z,13.57
2023-01-28T07:09:50.630Z,16.52
2023-01-28T07:12:18.323Z,14.20
2023-01-28T07:14:47.415Z,14.32
2023-01-28T07:17:15.234Z,16.85
2023-01-28T07:19:42.988Z,14.90
2023-01-28T07:22:10.751Z,18.08
2023-01-28T07:24:38.410Z,15.60
2023-01-28T07:27:06.080Z,20.45
2023-01-28T07:29:34.817Z,15.02
2023-01-28T07:32:04.997Z,14.52
2023-01-28T07:34:33.580Z,9.75
2023-01-28T07:37:01.292Z,14.85
2023-01-28T07:39:28.976Z,11.18
2023-01-28T07:41:56.626Z,17.80
2023-01-28T07:44:24.383Z,12.15
2023-01-28T07:46:54.569Z,10.63
2023-01-28T07:49:24.521Z,13.85
2023-01-28T07:51:52.689Z,14.43
2023-01-28T07:54:20.365Z,14.30
2023-01-28T07:56:48.303Z,15.07
2023-01-28T07:59:15.981Z,11.77
2023-01-28T08:01:44.371Z,10.02
2023-01-28T08:04:12.214Z,15.75
2023-01-28T08:06:41.342Z,16.40
2023-01-28T08:09:10.098Z,15.98
2023-01-28T08:11:39.317Z,13.80
2023-01-28T08:14:07.272Z,14.13
2023-01-28T08:16:34.964Z,16.77
2023-01-28T08:19:02.856Z,17.23
2023-01-28T08:21:30.529Z,17.42
2023-01-28T08:24:01.764Z,15.32
2023-01-28T08:26:29.531Z,15.40
2023-01-28T08:28:57.691Z,17.10
2023-01-28T08:31:25.536Z,21.25
2023-01-28T08:33:53.188Z,19.60
2023-01-28T08:36:20.837Z,22.88
2023-01-28T08:38:48.534Z,13.65
2023-01-28T08:41:17.533Z,11.73
2023-01-28T08:43:45.613Z,15.63
2023-01-28T08:46:13.474Z,14.80
2023-01-28T08:48:41.156Z,14.75
2023-01-28T08:51:08.938Z,16.98
2023-01-28T08:53:36.608Z,17.20
2023-01-28T08:56:04.399Z,12.20
2023-01-28T08:58:33.410Z,15.90
2023-01-28T09:01:05.086Z,12.38
2023-01-28T09:03:32.952Z,14.48
2023-01-28T09:06:03.793Z,18.23
2023-01-28T09:08:31.526Z,14.23
2023-01-28T09:10:59.575Z,14.70
2023-01-28T09:13:27.516Z,10.98
2023-01-28T09:15:56.626Z,16.08
2023-01-28T09:18:25.107Z,11.70
2023-01-28T09:20:52.793Z,15.98
2023-01-28T09:23:20.465Z,14.23
2023-01-28T09:25:48.154Z,13.88
2023-01-28T09:28:15.875Z,14.43
2023-01-28T09:30:43.909Z,13.18
2023-01-28T09:33:12.958Z,16.42
2023-01-28T09:35:40.840Z,13.95
2023-01-28T09:38:08.535Z,16.80
2023-01-28T09:40:38.288Z,18.35
2023-01-28T09:43:25.907Z,16.15
2023-01-28T09:45:54.476Z,11.55
2023-01-28T09:48:24.594Z,12.43
2023-01-28T09:50:54.037Z,13.60
2023-01-28T09:53:23.137Z,12.50
2023-01-28T09:55:52.206Z,16.80
2023-01-28T09:58:19.937Z,13.57
2023-01-28T10:00:52.565Z,14.35
2023-01-28T10:03:28.135Z,13.07
2023-01-28T10:06:01.300Z,17.73
2023-01-28T10:08:39.123Z,13.32
2023-01-28T10:11:12.164Z,9.90
2023-01-28T10:13:43.507Z,14.75
2023-01-28T10:16:17.672Z,16.70
2023-01-28T10:18:48.114Z,17.10
2023-01-28T10:21:19.133Z,16.15
2023-01-28T10:23:49.572Z,16.85
2023-01-28T10:26:23.873Z,12.95
2023-01-28T10:28:54.771Z,9.57
2023-01-28T10:31:23.169Z,11.57
2023-01-28T10:33:52.233Z,10.80
2023-01-28T10:36:20.447Z,8.70
2023-01-28T10:38:48.180Z,9.55
2023-01-28T10:41:21.037Z,15.10
2023-01-28T10:43:49.546Z,9.23
2023-01-28T10:46:18.539Z,11.32
2023-01-28T10:48:47.633Z,11.10
2023-01-28T10:51:20.809Z,14.80
2023-01-28T10:53:48.465Z,11.27
2023-01-28T10:56:17.571Z,12.93
2023-01-28T10:58:49.360Z,10.88
2023-01-28T11:01:17.165Z,14.30
2023-01-28T11:03:54.657Z,12.55
2023-01-28T11:06:27.149Z,16.33
2023-01-28T11:08:54.874Z,15.85
2023-01-28T11:11:26.769Z,15.77
2023-01-28T11:13:55.755Z,13.88
2023-01-28T11:16:23.428Z,16.95
2023-01-28T11:18:53.178Z,16.20
2023-01-28T11:21:21.698Z,12.95
2023-01-28T11:23:52.918Z,15.10
2023-01-28T11:26:22.573Z,15.18
2023-01-28T11:28:51.219Z,13.68
2023-01-28T11:31:20.229Z,15.80
2023-01-28T11:33:50.560Z,16.50
2023-01-28T11:36:19.947Z,14.82
2023-01-28T11:38:53.088Z,17.15
2023-01-28T11:41:25.548Z,15.00
2023-01-28T11:43:53.258Z,12.20
2023-01-28T11:46:31.522Z,12.98
2023-01-28T11:49:04.655Z,13.80
2023-01-28T11:51:38.017Z,13.25
2023-01-28T11:54:13.442Z,16.20
2023-01-28T11:56:46.981Z,14.77
2023-01-28T11:59:25.902Z,20.73
2023-01-28T12:01:56.243Z,15.18
2023-01-28T12:04:35.994Z,14.70
2023-01-28T12:07:09.936Z,15.75
2023-01-28T12:09:44.123Z,15.40
2023-01-28T12:12:18.804Z,14.75
2023-01-28T12:15:07.111Z,16.60
2023-01-28T12:17:44.458Z,12.25
2023-01-28T12:20:19.511Z,13.07
2023-01-28T12:22:57.573Z,12.63
2023-01-28T12:25:36.040Z,10.75
2023-01-28T12:28:10.103Z,15.25
2023-01-28T12:30:46.831Z,11.75
2023-01-28T12:33:29.326Z,15.30
2023-01-28T12:36:02.886Z,14.95
2023-01-28T12:38:37.132Z,13.07
2023-01-28T12:41:09.039Z,15.60
2023-01-28T12:43:44.881Z,12.10
2023-01-28T12:46:18.032Z,12.60
2023-01-28T12:48:48.041Z,11.23
2023-01-28T12:51:16.978Z,11.25
2023-01-28T12:53:48.994Z,16.77
2023-01-28T12:56:19.224Z,12.52
2023-01-28T12:58:50.475Z,13.25
2023-01-28T13:01:21.273Z,10.60
2023-01-28T13:03:52.577Z,8.30
2023-01-28T13:06:23.178Z,10.93
2023-01-28T13:08:51.341Z,10.48
2023-01-28T13:11:21.197Z,9.10
2023-01-28T13:13:49.302Z,9.07
2023-01-28T13:16:19.391Z,7.75
2023-01-28T13:18:48.887Z,7.53
2023-01-28T13:21:18.413Z,7.00
2023-01-28T13:23:47.054Z,15.18
2023-01-28T13:26:35.542Z,6.80
2023-01-28T13:29:19.002Z,9.07
2023-01-28T13:31:51.178Z,7.40
2023-01-28T13:34:33.075Z,7.43
2023-01-28T13:37:02.336Z,6.85
2023-01-28T13:39:31.825Z,9.50
2023-01-28T13:42:09.918Z,9.23
2023-01-28T13:44:40.090Z,6.93
2023-01-28T13:47:16.267Z,9.13
2023-01-28T13:49:45.981Z,6.60
2023-01-28T13:52:16.031Z,8.07
2023-01-28T13:54:46.144Z,13.70
2023-01-28T13:57:28.429Z,7.80
2023-01-28T14:00:01.459Z,8.68
2023-01-28T14:02:45.965Z,7.15
2023-01-28T14:05:28.428Z,8.52
2023-01-28T14:08:10.934Z,7.60
2023-01-28T14:10:49.409Z,5.97
2023-01-28T14:13:31.329Z,9.40
2023-01-28T14:16:06.870Z,6.78
2023-01-28T14:18:37.017Z,7.38
2023-01-28T14:21:10.456Z,8.60
2023-01-28T14:23:38.664Z,10.80
2023-01-28T14:26:11.423Z,12.52
2023-01-28T14:28:47.948Z,8.32
2023-01-28T14:31:19.867Z,8.95
2023-01-28T14:33:48.065Z,9.80
2023-01-28T14:36:15.841Z,11.20
2023-01-28T14:38:44.902Z,11.13
2023-01-28T14:41:18.807Z,7.43
2023-01-28T14:43:46.501Z,14.18
2023-01-28T14:46:20.424Z,16.23
2023-01-28T14:48:56.824Z,9.13
2023-01-28T14:51:37.588Z,11.20
2023-01-28T14:54:19.968Z,11.43
2023-01-28T14:56:55.698Z,12.05
2023-01-28T14:59:24.329Z,14.15
2023-01-28T15:01:56.497Z,14.75
2023-01-28T15:04:27.080Z,11.00
2023-01-28T15:06:55.005Z,18.30
2023-01-28T15:09:24.152Z,16.00
2023-01-28T15:11:53.242Z,8.73
2023-01-28T15:14:24.556Z,24.45
2023-01-28T15:16:52.390Z,32.95
2023-01-28T15:19:24.092Z,12.98
2023-01-28T15:21:55.706Z,22.83
2023-01-28T15:24:23.523Z,11.20
2023-01-28T15:26:51.722Z,13.32
2023-01-28T15:29:25.336Z,11.98
2023-01-28T15:31:54.637Z,11.20
2023-01-28T15:34:23.563Z,7.57
2023-01-28T15:36:51.490Z,8.27
2023-01-28T15:39:21.764Z,16.02
2023-01-28T15:41:51.048Z,26.02
2023-01-28T15:44:19.720Z,16.15
2023-01-28T15:46:47.371Z,18.83
2023-01-28T15:49:15.880Z,15.52
2023-01-28T15:51:50.980Z,11.30
2023-01-28T15:54:20.660Z,15.30
2023-01-28T15:56:48.489Z,10.07
2023-01-28T15:59:20.931Z,13.00
2023-01-28T16:01:48.682Z,9.57
2023-01-28T16:04:26.015Z,11.80
2023-01-28T16:06:54.397Z,12.32
2023-01-28T16:09:25.711Z,12.38
2023-01-28T16:11:53.775Z,9.90
2023-01-28T16:14:23.392Z,7.20
2023-01-28T16:16:51.379Z,9.10
2023-01-28T16:19:24.375Z,10.68
2023-01-28T16:21:52.063Z,10.95
2023-01-28T16:24:23.485Z,12.50
2023-01-28T16:26:58.427Z,19.85
2023-01-28T16:29:27.293Z,10.23
2023-01-28T16:31:57.052Z,11.73
2023-01-28T16:34:27.509Z,14.48
2023-01-28T16:36:55.491Z,13.85
2023-01-28T16:39:23.186Z,17.42
2023-01-28T16:41:50.841Z,16.15
2023-01-28T16:44:19.948Z,10.73
2023-01-28T16:46:47.747Z,13.10
2023-01-28T16:49:15.639Z,14.35
2023-01-28T16:51:44.204Z,13.15
2023-01-28T16:54:13.873Z,11.65
2023-01-28T16:56:45.735Z,16.25
2023-01-28T16:59:14.978Z,11.25
2023-01-28T17:01:44.282Z,13.82
2023-01-28T17:04:13.183Z,12.32
2023-01-28T17:06:43.274Z,15.05
2023-01-28T17:09:11.723Z,12.35
2023-01-28T17:11:39.751Z,11.63
2023-01-28T17:14:07.518Z,13.80
2023-01-28T17:16:35.257Z,8.75
2023-01-28T17:19:04.505Z,13.77
2023-01-28T17:21:32.185Z,13.25
2023-01-28T17:24:00.920Z,10.85
2023-01-28T17:26:30.121Z,11.10
2023-01-28T17:28:57.955Z,12.82
2023-01-28T17:31:26.463Z,16.27
2023-01-28T17:33:55.131Z,12.27
2023-01-28T17:36:24.221Z,14.68
2023-01-28T17:38:52.011Z,13.57
2023-01-28T17:41:19.712Z,12.85
2023-01-28T17:43:51.136Z,14.40
2023-01-28T17:46:19.911Z,18.63
2023-01-28T17:48:47.605Z,17.55
2023-01-28T17:51:16.866Z,23.58
2023-01-28T17:53:47.893Z,15.13
2023-01-28T17:56:16.893Z,14.95
2023-01-28T17:58:44.751Z,21.05
2023-01-28T18:01:12.550Z,14.57
2023-01-28T18:03:40.243Z,18.17
2023-01-28T18:06:07.940Z,13.68
2023-01-28T18:08:35.943Z,14.75
2023-01-28T18:11:08.848Z,13.27
2023-01-28T18:13:36.768Z,13.82
2023-01-28T18:16:04.604Z,15.13
2023-01-28T18:18:32.393Z,14.13
2023-01-28T18:21:00.804Z,15.20
2023-01-28T18:23:28.473Z,14.57
2023-01-28T18:25:56.914Z,16.38
2023-01-28T18:28:26.555Z,19.95
2023-01-28T18:30:54.532Z,15.40
2023-01-28T18:33:23.092Z,14.32
2023-01-28T18:35:50.865Z,12.25
2023-01-28T18:38:19.449Z,21.17
2023-01-28T18:40:47.549Z,19.55
2023-01-28T18:43:15.274Z,18.77
2023-01-28T18:45:45.807Z,19.52
2023-01-28T18:48:13.670Z,17.42
2023-01-28T18:50:41.475Z,21.13
2023-01-28T18:53:09.118Z,20.73
2023-01-28T18:55:39.127Z,13.88
2023-01-28T18:58:06.904Z,15.15
2023-01-28T19:00:34.591Z,17.40
2023-01-28T19:03:03.777Z,18.05
2023-01-28T19:05:35.395Z,24.75
2023-01-28T19:08:03.681Z,22.80
2023-01-28T19:10:31.633Z,19.73
2023-01-28T19:12:59.360Z,21.77
2023-01-28T19:15:27.164Z,21.85
2023-01-28T19:17:55.228Z,22.77
2023-01-28T19:20:24.349Z,21.77
2023-01-28T19:22:52.022Z,21.50
2023-01-28T19:25:19.962Z,18.05
2023-01-28T19:27:48.037Z,19.08
2023-01-28T19:30:16.610Z,18.20
2023-01-28T19:32:44.935Z,16.20
2023-01-28T19:35:12.602Z,14.98
2023-01-28T19:37:41.721Z,18.48
2023-01-28T19:40:10.153Z,19.45
2023-01-28T19:42:38.052Z,22.17
2023-01-28T19:45:06.534Z,16.30
2023-01-28T19:47:34.527Z,18.55
2023-01-28T19:50:02.193Z,22.13
2023-01-28T19:52:31.625Z,20.98
2023-01-28T19:55:00.670Z,23.02
2023-01-28T19:57:28.305Z,27.95
2023-01-28T19:59:56.036Z,26.38
2023-01-28T20:02:23.764Z,25.92
2023-01-28T20:05:00.584Z,26.60
2023-01-28T20:07:28.735Z,38.42
2023-01-28T20:09:56.499Z,27.15
2023-01-28T20:12:25.969Z,26.70
2023-01-28T20:14:53.765Z,24.75
2023-01-28T20:17:21.769Z,17.80
2023-01-28T20:19:50.017Z,17.90
2023-01-28T20:22:20.445Z,21.73
2023-01-28T20:24:49.120Z,27.92
2023-01-28T20:27:16.791Z,17.80
2023-01-28T20:29:45.785Z,24.75
2023-01-28T20:32:18.300Z,25.85
2023-01-28T20:34:48.724Z,21.55
2023-01-28T20:37:19.237Z,25.05
2023-01-28T20:39:46.958Z,25.02
2023-01-28T20:42:15.025Z,15.77
2023-01-28T20:44:42.896Z,33.03
2023-01-28T20:47:11.980Z,25.13
2023-01-28T20:49:39.785Z,24.67
2023-01-28T20:52:07.523Z,22.38
2023-01-28T20:54:35.828Z,25.40
2023-01-28T20:57:03.550Z,20.92
2023-01-28T20:59:32.585Z,22.15
2023-01-28T21:02:00.801Z,23.00
2023-01-28T21:04:30.235Z,28.20
2023-01-28T21:06:57.950Z,20.33
2023-01-28T21:09:27.865Z,24.23
2023-01-28T21:11:55.698Z,20.75
2023-01-28T21:14:23.367Z,23.00
2023-01-28T21:16:53.041Z,22.88
2023-01-28T21:19:20.858Z,21.60
2023-01-28T21:21:49.957Z,18.98
2023-01-28T21:24:17.757Z,22.20
2023-01-28T21:26:45.417Z,27.80
2023-01-28T21:29:14.655Z,21.05
2023-01-28T21:31:42.684Z,23.83
2023-01-28T21:34:10.576Z,20.27
2023-01-28T21:36:38.840Z,25.30
2023-01-28T21:39:07.935Z,20.48
2023-01-28T21:41:35.838Z,18.42
2023-01-28T21:44:03.562Z,21.95
2023-01-28T21:46:32.807Z,19.50
2023-01-28T21:49:01.664Z,16.52
2023-01-28T21:51:39.603Z,21.70
2023-01-28T21:54:10.814Z,20.60
2023-01-28T21:56:38.537Z,25.58
2023-01-28T21:59:23.649Z,26.60
2023-01-28T22:01:51.341Z,21.10
2023-01-28T22:04:19.023Z,21.67
2023-01-28T22:06:46.928Z,20.45
2023-01-28T22:09:16.164Z,26.35
2023-01-28T22:11:45.227Z,23.80
2023-01-28T22:14:13.340Z,22.67
2023-01-28T22:16:41.284Z,19.38
2023-01-28T22:19:09.278Z,27.33
2023-01-28T22:21:41.160Z,20.45
2023-01-28T22:24:10.177Z,29.65
2023-01-28T22:26:39.337Z,26.00
2023-01-28T22:29:07.588Z,23.50
2023-01-28T22:31:35.407Z,22.67
2023-01-28T22:34:03.168Z,29.70
2023-01-28T22:36:32.861Z,26.60
2023-01-28T22:39:00.728Z,32.60
2023-01-28T22:41:28.963Z,25.95
2023-01-28T22:43:58.008Z,19.92
2023-01-28T22:46:25.889Z,21.88
2023-01-28T22:48:53.874Z,19.85
2023-01-28T22:51:22.299Z,20.08
2023-01-28T22:53:50.819Z,35.15
2023-01-28T22:56:19.714Z,23.00
2023-01-28T22:58:47.632Z,23.45
2023-01-28T23:01:17.904Z,20.23
2023-01-28T23:03:47.350Z,19.23
2023-01-28T23:06:16.562Z,24.17
2023-01-28T23:08:45.068Z,20.60
2023-01-28T23:11:15.423Z,25.15
2023-01-28T23:14:00.894Z,35.95
2023-01-28T23:16:48.066Z,26.13
2023-01-28T23:19:33.267Z,17.15
2023-01-28T23:22:20.830Z,21.35
2023-01-28T23:24:48.518Z,22.23
2023-01-28T23:27:16.242Z,25.83
2023-01-28T23:29:43.883Z,17.30
2023-01-28T23:32:13.612Z,20.08
2023-01-28T23:34:44.463Z,21.70
2023-01-28T23:37:13.016Z,23.63
2023-01-28T23:39:41.160Z,27.75
2023-01-28T23:42:13.065Z,19.42
2023-01-28T23:44:40.704Z,25.15
2023-01-28T23:47:08.626Z,25.20
2023-01-28T23:49:38.017Z,26.58
2023-01-28T23:52:06.359Z,26.55
2023-01-28T23:54:34.058Z,22.42
2023-01-28T23:57:02.138Z,19.60
2023-01-28T23:59:29.805Z,25.23
